Terminal Aerodrome Forecast
Issued by NWS

Home | Current Version | Previous Version | Graphics & Text | Print | Product List | Glossary On
Versions: 1 2 3 4 5 6 7 8 9 10 11 12 13 14 15 16 17 18
000
FTUS43 KMPX 231804 CCA
TAFAXN
TAF COR
KAXN 231804Z 2318/2418 19012KT P6SM SCT050 OVC200
     FM231900 16012G18KT P6SM -SHRA VCTS BKN050CB OVC200
     FM232200 15012KT P6SM SCT070
     FM240700 15010KT P6SM SCT200
     FM241600 18014G22KT P6SM SCT200=

USA.gov is the U.S. government's official web portal to all federal, state and local government web resources and services.